Terminal Aerodrome Forecast
Issued by NWS

Current Version | Previous Version | Text Only | Print | Product List | Glossary On
Versions: 1 2 3 4 5 6 7 8 9 10 11 12 13 14
000
FTUS45 KRIW 310500
TAFBPI
TAF
KBPI 310534Z 3106/0106 VRB05KT P6SM SKC
     FM311100 VRB03KT P6SM VCFG FEW002
     FM311500 VRB05KT P6SM SCT250
     FM311800 VRB06KT P6SM SCT090
     FM010200 VRB05KT P6SM SCT250=

USA.gov is the U.S. government's official web portal to all federal, state and local government web resources and services.